sensor_id;sensor_type;location;lat;lon;timestamp;temperature;humidity
21895;DHT22;11112;51.270;7.224;2023-03-30T00:00:34;12.60;99.90
21895;DHT22;11112;51.270;7.224;2023-03-30T00:03:03;12.60;99.90
21895;DHT22;11112;51.270;7.224;2023-03-30T00:05:30;12.60;99.90
21895;DHT22;11112;51.270;7.224;2023-03-30T00:07:57;12.60;99.90
21895;DHT22;11112;51.270;7.224;2023-03-30T00:10:25;12.60;99.90
21895;DHT22;11112;51.270;7.224;2023-03-30T00:12:55;12.60;99.90
21895;DHT22;11112;51.270;7.224;2023-03-30T00:15:22;12.60;99.90
21895;DHT22;11112;51.270;7.224;2023-03-30T00:17:50;12.60;99.90
21895;DHT22;11112;51.270;7.224;2023-03-30T00:20:20;12.60;99.90
21895;DHT22;11112;51.270;7.224;2023-03-30T00:22:48;12.60;99.90
21895;DHT22;11112;51.270;7.224;2023-03-30T00:25:16;12.60;99.90
21895;DHT22;11112;51.270;7.224;2023-03-30T00:27:44;12.60;99.90
21895;DHT22;11112;51.270;7.224;2023-03-30T00:30:14;12.60;99.90
21895;DHT22;11112;51.270;7.224;2023-03-30T00:32:45;12.60;99.90
21895;DHT22;11112;51.270;7.224;2023-03-30T00:35:13;12.70;99.90
21895;DHT22;11112;51.270;7.224;2023-03-30T00:37:40;12.70;99.90
21895;DHT22;11112;51.270;7.224;2023-03-30T00:40:15;12.70;99.90
21895;DHT22;11112;51.270;7.224;2023-03-30T00:42:44;12.70;99.90
21895;DHT22;11112;51.270;7.224;2023-03-30T00:45:23;12.70;99.90
21895;DHT22;11112;51.270;7.224;2023-03-30T00:47:59;12.70;99.90
21895;DHT22;11112;51.270;7.224;2023-03-30T00:50:33;12.70;99.90
21895;DHT22;11112;51.270;7.224;2023-03-30T00:53:07;12.70;99.90
21895;DHT22;11112;51.270;7.224;2023-03-30T00:55:39;12.70;99.90
21895;DHT22;11112;51.270;7.224;2023-03-30T00:58:07;12.70;99.90
21895;DHT22;11112;51.270;7.224;2023-03-30T01:00:38;12.70;99.90
21895;DHT22;11112;51.270;7.224;2023-03-30T01:03:10;12.70;99.90
21895;DHT22;11112;51.270;7.224;2023-03-30T01:05:42;12.70;99.90
21895;DHT22;11112;51.270;7.224;2023-03-30T01:08:12;12.70;99.90
21895;DHT22;11112;51.270;7.224;2023-03-30T01:10:41;12.70;99.90
21895;DHT22;11112;51.270;7.224;2023-03-30T01:13:09;12.70;99.90
21895;DHT22;11112;51.270;7.224;2023-03-30T01:15:44;12.70;99.90
21895;DHT22;11112;51.270;7.224;2023-03-30T01:18:26;12.80;99.90
21895;DHT22;11112;51.270;7.224;2023-03-30T01:21:30;12.70;99.90
21895;DHT22;11112;51.270;7.224;2023-03-30T01:24:45;12.70;99.90
21895;DHT22;11112;51.270;7.224;2023-03-30T01:27:38;12.70;99.90
21895;DHT22;11112;51.270;7.224;2023-03-30T01:30:28;12.70;99.90
21895;DHT22;11112;51.270;7.224;2023-03-30T01:36:50;12.80;99.90
21895;DHT22;11112;51.270;7.224;2023-03-30T01:39:40;12.80;99.90
21895;DHT22;11112;51.270;7.224;2023-03-30T01:42:17;12.80;99.90
21895;DHT22;11112;51.270;7.224;2023-03-30T01:44:54;12.80;99.90
21895;DHT22;11112;51.270;7.224;2023-03-30T01:47:33;12.80;99.90
21895;DHT22;11112;51.270;7.224;2023-03-30T01:50:05;12.90;99.90
21895;DHT22;11112;51.270;7.224;2023-03-30T01:52:38;12.90;99.90
21895;DHT22;11112;51.270;7.224;2023-03-30T01:55:12;12.90;99.90
21895;DHT22;11112;51.270;7.224;2023-03-30T01:57:44;12.90;99.90
21895;DHT22;11112;51.270;7.224;2023-03-30T02:00:16;12.90;99.90
21895;DHT22;11112;51.270;7.224;2023-03-30T02:02:48;13.00;99.90
21895;DHT22;11112;51.270;7.224;2023-03-30T02:05:19;13.00;99.90
21895;DHT22;11112;51.270;7.224;2023-03-30T02:07:50;13.00;99.90
21895;DHT22;11112;51.270;7.224;2023-03-30T02:10:23;13.00;99.90
21895;DHT22;11112;51.270;7.224;2023-03-30T02:12:55;13.00;99.90
21895;DHT22;11112;51.270;7.224;2023-03-30T02:15:27;13.00;99.90
21895;DHT22;11112;51.270;7.224;2023-03-30T02:17:59;13.10;99.90
21895;DHT22;11112;51.270;7.224;2023-03-30T02:20:28;13.10;99.80
21895;DHT22;11112;51.270;7.224;2023-03-30T02:22:55;13.10;99.90
21895;DHT22;11112;51.270;7.224;2023-03-30T02:25:24;13.10;99.90
21895;DHT22;11112;51.270;7.224;2023-03-30T02:27:52;13.10;99.90
21895;DHT22;11112;51.270;7.224;2023-03-30T02:30:19;13.10;99.90
21895;DHT22;11112;51.270;7.224;2023-03-30T02:32:48;13.10;99.90
21895;DHT22;11112;51.270;7.224;2023-03-30T02:35:28;13.20;99.80
21895;DHT22;11112;51.270;7.224;2023-03-30T02:38:24;13.20;99.80
21895;DHT22;11112;51.270;7.224;2023-03-30T02:41:15;13.20;99.90
21895;DHT22;11112;51.270;7.224;2023-03-30T02:43:54;13.20;99.90
21895;DHT22;11112;51.270;7.224;2023-03-30T02:46:47;13.20;99.90
21895;DHT22;11112;51.270;7.224;2023-03-30T02:49:32;13.20;99.90
21895;DHT22;11112;51.270;7.224;2023-03-30T02:52:12;13.20;99.90
21895;DHT22;11112;51.270;7.224;2023-03-30T02:54:49;13.20;99.80
21895;DHT22;11112;51.270;7.224;2023-03-30T02:57:29;13.20;99.90
21895;DHT22;11112;51.270;7.224;2023-03-30T03:00:05;13.20;99.80
21895;DHT22;11112;51.270;7.224;2023-03-30T03:02:39;13.20;99.90
21895;DHT22;11112;51.270;7.224;2023-03-30T03:05:09;13.20;99.80
21895;DHT22;11112;51.270;7.224;2023-03-30T03:07:39;13.20;99.90
21895;DHT22;11112;51.270;7.224;2023-03-30T03:10:07;13.20;99.90
21895;DHT22;11112;51.270;7.224;2023-03-30T03:12:36;13.20;99.90
21895;DHT22;11112;51.270;7.224;2023-03-30T03:15:04;13.20;99.90
21895;DHT22;11112;51.270;7.224;2023-03-30T03:17:31;13.20;99.90
21895;DHT22;11112;51.270;7.224;2023-03-30T03:20:00;13.30;99.90
21895;DHT22;11112;51.270;7.224;2023-03-30T03:22:28;13.30;99.90
21895;DHT22;11112;51.270;7.224;2023-03-30T03:24:55;13.30;99.90
21895;DHT22;11112;51.270;7.224;2023-03-30T03:27:23;13.30;99.90
21895;DHT22;11112;51.270;7.224;2023-03-30T03:29:51;13.30;99.90
21895;DHT22;11112;51.270;7.224;2023-03-30T03:32:19;13.30;99.90
21895;DHT22;11112;51.270;7.224;2023-03-30T03:34:46;13.30;99.90
21895;DHT22;11112;51.270;7.224;2023-03-30T03:37:13;13.30;99.90
21895;DHT22;11112;51.270;7.224;2023-03-30T03:39:40;13.30;99.90
21895;DHT22;11112;51.270;7.224;2023-03-30T03:42:07;13.40;99.90
21895;DHT22;11112;51.270;7.224;2023-03-30T03:44:35;13.30;99.90
21895;DHT22;11112;51.270;7.224;2023-03-30T03:47:06;13.30;99.90
21895;DHT22;11112;51.270;7.224;2023-03-30T03:49:33;13.30;99.90
21895;DHT22;11112;51.270;7.224;2023-03-30T03:52:00;13.30;99.90
21895;DHT22;11112;51.270;7.224;2023-03-30T03:54:27;13.30;99.90
21895;DHT22;11112;51.270;7.224;2023-03-30T03:56:54;13.30;99.90
21895;DHT22;11112;51.270;7.224;2023-03-30T03:59:22;13.30;99.90
21895;DHT22;11112;51.270;7.224;2023-03-30T04:01:49;13.30;99.90
21895;DHT22;11112;51.270;7.224;2023-03-30T04:04:18;13.30;99.90
21895;DHT22;11112;51.270;7.224;2023-03-30T04:06:45;13.30;99.90
21895;DHT22;11112;51.270;7.224;2023-03-30T04:09:12;13.30;99.90
21895;DHT22;11112;51.270;7.224;2023-03-30T04:11:39;13.30;99.90
21895;DHT22;11112;51.270;7.224;2023-03-30T04:14:13;13.30;99.90
21895;DHT22;11112;51.270;7.224;2023-03-30T04:16:40;13.30;99.90
21895;DHT22;11112;51.270;7.224;2023-03-30T04:19:08;13.30;99.90
21895;DHT22;11112;51.270;7.224;2023-03-30T04:21:38;13.30;99.90
21895;DHT22;11112;51.270;7.224;2023-03-30T04:24:11;13.30;99.90
21895;DHT22;11112;51.270;7.224;2023-03-30T04:26:38;13.30;99.90
21895;DHT22;11112;51.270;7.224;2023-03-30T04:29:06;13.30;99.90
21895;DHT22;11112;51.270;7.224;2023-03-30T04:31:33;13.30;99.90
21895;DHT22;11112;51.270;7.224;2023-03-30T04:34:02;13.30;99.90
21895;DHT22;11112;51.270;7.224;2023-03-30T04:36:30;13.30;99.90
21895;DHT22;11112;51.270;7.224;2023-03-30T04:38:58;13.40;99.90
21895;DHT22;11112;51.270;7.224;2023-03-30T04:41:27;13.30;99.90
21895;DHT22;11112;51.270;7.224;2023-03-30T04:44:00;13.30;99.90
21895;DHT22;11112;51.270;7.224;2023-03-30T04:46:27;13.30;99.90
21895;DHT22;11112;51.270;7.224;2023-03-30T04:48:54;13.30;99.90
21895;DHT22;11112;51.270;7.224;2023-03-30T04:51:22;13.30;99.90
21895;DHT22;11112;51.270;7.224;2023-03-30T04:53:49;13.30;99.90
21895;DHT22;11112;51.270;7.224;2023-03-30T04:56:17;13.30;99.90
21895;DHT22;11112;51.270;7.224;2023-03-30T04:58:45;13.30;99.90
21895;DHT22;11112;51.270;7.224;2023-03-30T05:01:12;13.30;99.90
21895;DHT22;11112;51.270;7.224;2023-03-30T05:03:39;13.40;99.90
21895;DHT22;11112;51.270;7.224;2023-03-30T05:06:07;13.40;99.90
21895;DHT22;11112;51.270;7.224;2023-03-30T05:08:35;13.40;99.90
21895;DHT22;11112;51.270;7.224;2023-03-30T05:11:03;13.40;99.90
21895;DHT22;11112;51.270;7.224;2023-03-30T05:13:32;13.40;99.90
21895;DHT22;11112;51.270;7.224;2023-03-30T05:15:59;13.40;99.90
21895;DHT22;11112;51.270;7.224;2023-03-30T05:18:26;13.40;99.90
21895;DHT22;11112;51.270;7.224;2023-03-30T05:20:56;13.40;99.90
21895;DHT22;11112;51.270;7.224;2023-03-30T05:23:24;13.40;99.90
21895;DHT22;11112;51.270;7.224;2023-03-30T05:25:52;13.50;99.90
21895;DHT22;11112;51.270;7.224;2023-03-30T05:28:20;13.50;99.90
21895;DHT22;11112;51.270;7.224;2023-03-30T05:30:53;13.50;99.90
21895;DHT22;11112;51.270;7.224;2023-03-30T05:33:21;13.50;99.90
21895;DHT22;11112;51.270;7.224;2023-03-30T05:35:49;13.50;99.90
21895;DHT22;11112;51.270;7.224;2023-03-30T05:38:17;13.50;99.90
21895;DHT22;11112;51.270;7.224;2023-03-30T05:40:44;13.50;99.90
21895;DHT22;11112;51.270;7.224;2023-03-30T05:43:11;13.50;99.90
21895;DHT22;11112;51.270;7.224;2023-03-30T05:45:38;13.50;99.90
21895;DHT22;11112;51.270;7.224;2023-03-30T05:48:09;13.50;99.90
21895;DHT22;11112;51.270;7.224;2023-03-30T05:50:37;13.50;99.90
21895;DHT22;11112;51.270;7.224;2023-03-30T05:53:04;13.50;99.90
21895;DHT22;11112;51.270;7.224;2023-03-30T05:55:33;13.50;99.90
21895;DHT22;11112;51.270;7.224;2023-03-30T05:58:00;13.50;99.90
21895;DHT22;11112;51.270;7.224;2023-03-30T06:00:28;13.50;99.90
21895;DHT22;11112;51.270;7.224;2023-03-30T06:02:58;13.50;99.90
21895;DHT22;11112;51.270;7.224;2023-03-30T06:05:27;13.50;99.90
21895;DHT22;11112;51.270;7.224;2023-03-30T06:07:54;13.50;99.90
21895;DHT22;11112;51.270;7.224;2023-03-30T06:10:23;13.60;99.90
21895;DHT22;11112;51.270;7.224;2023-03-30T06:12:50;13.50;99.90
21895;DHT22;11112;51.270;7.224;2023-03-30T06:15:18;13.50;99.90
21895;DHT22;11112;51.270;7.224;2023-03-30T06:17:46;13.50;99.90
21895;DHT22;11112;51.270;7.224;2023-03-30T06:20:13;13.50;99.90
21895;DHT22;11112;51.270;7.224;2023-03-30T06:22:42;13.50;99.90
21895;DHT22;11112;51.270;7.224;2023-03-30T06:25:09;13.50;99.90
21895;DHT22;11112;51.270;7.224;2023-03-30T06:27:38;13.50;99.90
21895;DHT22;11112;51.270;7.224;2023-03-30T06:30:07;13.50;99.90
21895;DHT22;11112;51.270;7.224;2023-03-30T06:32:35;13.60;99.90
21895;DHT22;11112;51.270;7.224;2023-03-30T06:35:02;13.60;99.90
21895;DHT22;11112;51.270;7.224;2023-03-30T06:37:30;13.50;99.90
21895;DHT22;11112;51.270;7.224;2023-03-30T06:39:58;13.50;99.90
21895;DHT22;11112;51.270;7.224;2023-03-30T06:42:26;13.50;99.90
21895;DHT22;11112;51.270;7.224;2023-03-30T06:44:53;13.60;99.90
21895;DHT22;11112;51.270;7.224;2023-03-30T06:47:20;13.60;99.90
21895;DHT22;11112;51.270;7.224;2023-03-30T06:49:47;13.60;99.90
21895;DHT22;11112;51.270;7.224;2023-03-30T06:52:14;13.60;99.90
21895;DHT22;11112;51.270;7.224;2023-03-30T06:54:42;13.60;99.90
21895;DHT22;11112;51.270;7.224;2023-03-30T06:57:11;13.60;99.90
21895;DHT22;11112;51.270;7.224;2023-03-30T06:59:38;13.60;99.90
21895;DHT22;11112;51.270;7.224;2023-03-30T07:02:05;13.60;99.90
21895;DHT22;11112;51.270;7.224;2023-03-30T07:04:32;13.70;99.90
21895;DHT22;11112;51.270;7.224;2023-03-30T07:07:00;13.70;99.90
21895;DHT22;11112;51.270;7.224;2023-03-30T07:09:27;13.70;99.90
21895;DHT22;11112;51.270;7.224;2023-03-30T07:11:54;13.70;99.90
21895;DHT22;11112;51.270;7.224;2023-03-30T07:14:23;13.70;99.90
21895;DHT22;11112;51.270;7.224;2023-03-30T07:16:50;13.70;99.90
21895;DHT22;11112;51.270;7.224;2023-03-30T07:19:19;13.70;99.90
21895;DHT22;11112;51.270;7.224;2023-03-30T07:21:46;13.70;99.90
21895;DHT22;11112;51.270;7.224;2023-03-30T07:24:13;13.70;99.90
21895;DHT22;11112;51.270;7.224;2023-03-30T07:26:41;13.70;99.90
21895;DHT22;11112;51.270;7.224;2023-03-30T07:29:11;13.70;99.90
21895;DHT22;11112;51.270;7.224;2023-03-30T07:31:42;13.70;99.90
21895;DHT22;11112;51.270;7.224;2023-03-30T07:34:09;13.70;99.90
21895;DHT22;11112;51.270;7.224;2023-03-30T07:36:36;13.70;99.90
21895;DHT22;11112;51.270;7.224;2023-03-30T07:39:03;13.70;99.90
21895;DHT22;11112;51.270;7.224;2023-03-30T07:41:32;13.70;99.90
21895;DHT22;11112;51.270;7.224;2023-03-30T07:43:59;13.70;99.90
21895;DHT22;11112;51.270;7.224;2023-03-30T07:46:26;13.70;99.90
21895;DHT22;11112;51.270;7.224;2023-03-30T07:48:55;13.70;99.90
21895;DHT22;11112;51.270;7.224;2023-03-30T07:51:22;13.70;99.90
21895;DHT22;11112;51.270;7.224;2023-03-30T07:53:49;13.70;99.90
21895;DHT22;11112;51.270;7.224;2023-03-30T07:56:16;13.70;99.90
21895;DHT22;11112;51.270;7.224;2023-03-30T07:58:43;13.60;99.90
21895;DHT22;11112;51.270;7.224;2023-03-30T08:01:10;13.60;99.90
21895;DHT22;11112;51.270;7.224;2023-03-30T08:03:38;13.60;99.90
21895;DHT22;11112;51.270;7.224;2023-03-30T08:06:06;13.60;99.90
21895;DHT22;11112;51.270;7.224;2023-03-30T08:08:35;13.60;99.90
21895;DHT22;11112;51.270;7.224;2023-03-30T08:11:06;13.50;99.90
21895;DHT22;11112;51.270;7.224;2023-03-30T08:13:35;13.60;99.90
21895;DHT22;11112;51.270;7.224;2023-03-30T08:16:02;13.60;99.90
21895;DHT22;11112;51.270;7.224;2023-03-30T08:18:30;13.60;99.90
21895;DHT22;11112;51.270;7.224;2023-03-30T08:20:57;13.60;99.90
21895;DHT22;11112;51.270;7.224;2023-03-30T08:23:26;13.60;99.90
21895;DHT22;11112;51.270;7.224;2023-03-30T08:25:55;13.40;99.90
21895;DHT22;11112;51.270;7.224;2023-03-30T08:28:22;13.30;99.90
21895;DHT22;11112;51.270;7.224;2023-03-30T08:30:50;13.20;99.90
21895;DHT22;11112;51.270;7.224;2023-03-30T08:33:17;13.10;99.90
21895;DHT22;11112;51.270;7.224;2023-03-30T08:35:44;13.10;99.90
21895;DHT22;11112;51.270;7.224;2023-03-30T08:38:12;13.00;99.90
21895;DHT22;11112;51.270;7.224;2023-03-30T08:40:44;13.00;99.90
21895;DHT22;11112;51.270;7.224;2023-03-30T08:43:24;13.00;99.90
21895;DHT22;11112;51.270;7.224;2023-03-30T08:46:03;13.00;99.90
21895;DHT22;11112;51.270;7.224;2023-03-30T08:48:32;13.10;99.90
21895;DHT22;11112;51.270;7.224;2023-03-30T08:51:07;13.10;99.90
21895;DHT22;11112;51.270;7.224;2023-03-30T08:53:40;13.10;99.90
21895;DHT22;11112;51.270;7.224;2023-03-30T08:56:13;13.10;99.90
21895;DHT22;11112;51.270;7.224;2023-03-30T08:58:44;13.10;99.90
21895;DHT22;11112;51.270;7.224;2023-03-30T09:01:19;13.10;99.90
21895;DHT22;11112;51.270;7.224;2023-03-30T09:04:01;13.10;99.90
21895;DHT22;11112;51.270;7.224;2023-03-30T09:06:42;13.10;99.90
21895;DHT22;11112;51.270;7.224;2023-03-30T09:09:17;13.10;99.90
21895;DHT22;11112;51.270;7.224;2023-03-30T09:11:48;13.10;99.90
21895;DHT22;11112;51.270;7.224;2023-03-30T09:14:23;13.10;99.90
21895;DHT22;11112;51.270;7.224;2023-03-30T09:16:59;13.10;99.90
21895;DHT22;11112;51.270;7.224;2023-03-30T09:19:35;13.10;99.90
21895;DHT22;11112;51.270;7.224;2023-03-30T09:22:12;13.30;99.90
21895;DHT22;11112;51.270;7.224;2023-03-30T09:24:40;13.30;99.90
21895;DHT22;11112;51.270;7.224;2023-03-30T09:27:13;13.40;99.90
21895;DHT22;11112;51.270;7.224;2023-03-30T09:29:47;13.50;99.90
21895;DHT22;11112;51.270;7.224;2023-03-30T09:32:22;13.50;99.90
21895;DHT22;11112;51.270;7.224;2023-03-30T09:34:58;13.50;99.90
21895;DHT22;11112;51.270;7.224;2023-03-30T09:37:33;13.50;99.90
21895;DHT22;11112;51.270;7.224;2023-03-30T09:40:17;13.60;99.90
21895;DHT22;11112;51.270;7.224;2023-03-30T09:42:57;13.60;99.90
21895;DHT22;11112;51.270;7.224;2023-03-30T09:45:29;13.70;99.90
21895;DHT22;11112;51.270;7.224;2023-03-30T09:48:03;13.70;99.90
21895;DHT22;11112;51.270;7.224;2023-03-30T09:50:36;13.60;99.90
21895;DHT22;11112;51.270;7.224;2023-03-30T09:53:09;13.50;99.90
21895;DHT22;11112;51.270;7.224;2023-03-30T09:55:55;13.50;99.90
21895;DHT22;11112;51.270;7.224;2023-03-30T09:58:31;13.40;99.90
21895;DHT22;11112;51.270;7.224;2023-03-30T10:01:04;13.30;99.90
21895;DHT22;11112;51.270;7.224;2023-03-30T10:03:33;13.30;99.90
21895;DHT22;11112;51.270;7.224;2023-03-30T10:06:06;13.30;99.90
21895;DHT22;11112;51.270;7.224;2023-03-30T10:08:42;13.20;99.90
21895;DHT22;11112;51.270;7.224;2023-03-30T10:11:18;13.20;99.90
21895;DHT22;11112;51.270;7.224;2023-03-30T10:13:48;13.10;99.90
21895;DHT22;11112;51.270;7.224;2023-03-30T10:16:23;13.10;99.90
21895;DHT22;11112;51.270;7.224;2023-03-30T10:18:53;13.10;99.90
21895;DHT22;11112;51.270;7.224;2023-03-30T10:21:23;13.10;99.90
21895;DHT22;11112;51.270;7.224;2023-03-30T10:24:00;13.00;99.90
21895;DHT22;11112;51.270;7.224;2023-03-30T10:26:30;13.00;99.90
21895;DHT22;11112;51.270;7.224;2023-03-30T10:29:03;13.00;99.90
21895;DHT22;11112;51.270;7.224;2023-03-30T10:31:34;13.00;99.90
21895;DHT22;11112;51.270;7.224;2023-03-30T10:34:04;13.00;99.90
21895;DHT22;11112;51.270;7.224;2023-03-30T10:36:36;12.90;99.90
21895;DHT22;11112;51.270;7.224;2023-03-30T10:39:09;13.00;99.90
21895;DHT22;11112;51.270;7.224;2023-03-30T10:41:39;13.00;99.90
21895;DHT22;11112;51.270;7.224;2023-03-30T10:44:27;13.00;99.90
21895;DHT22;11112;51.270;7.224;2023-03-30T10:47:08;13.00;99.90
21895;DHT22;11112;51.270;7.224;2023-03-30T10:49:49;13.00;99.90
21895;DHT22;11112;51.270;7.224;2023-03-30T10:52:23;13.00;99.90
21895;DHT22;11112;51.270;7.224;2023-03-30T10:54:57;13.10;99.90
21895;DHT22;11112;51.270;7.224;2023-03-30T10:57:33;13.10;99.90
21895;DHT22;11112;51.270;7.224;2023-03-30T11:00:24;13.20;99.90
21895;DHT22;11112;51.270;7.224;2023-03-30T11:03:04;13.20;99.90
21895;DHT22;11112;51.270;7.224;2023-03-30T11:05:35;13.20;99.90
21895;DHT22;11112;51.270;7.224;2023-03-30T11:08:05;13.20;99.90
21895;DHT22;11112;51.270;7.224;2023-03-30T11:10:37;13.20;99.90
21895;DHT22;11112;51.270;7.224;2023-03-30T11:13:09;13.20;99.90
21895;DHT22;11112;51.270;7.224;2023-03-30T11:15:43;13.20;99.90
21895;DHT22;11112;51.270;7.224;2023-03-30T11:18:16;13.30;99.90
21895;DHT22;11112;51.270;7.224;2023-03-30T11:20:49;13.30;99.90
21895;DHT22;11112;51.270;7.224;2023-03-30T11:23:24;13.30;99.90
21895;DHT22;11112;51.270;7.224;2023-03-30T11:26:05;13.30;99.90
21895;DHT22;11112;51.270;7.224;2023-03-30T11:28:50;13.40;99.90
21895;DHT22;11112;51.270;7.224;2023-03-30T11:31:48;13.40;99.90
21895;DHT22;11112;51.270;7.224;2023-03-30T11:34:25;13.50;99.90
21895;DHT22;11112;51.270;7.224;2023-03-30T11:37:00;13.50;99.90
21895;DHT22;11112;51.270;7.224;2023-03-30T11:39:31;13.60;99.90
21895;DHT22;11112;51.270;7.224;2023-03-30T11:42:12;13.50;99.90
21895;DHT22;11112;51.270;7.224;2023-03-30T11:44:42;13.60;99.90
21895;DHT22;11112;51.270;7.224;2023-03-30T11:47:36;13.70;99.90
21895;DHT22;11112;51.270;7.224;2023-03-30T11:50:25;13.70;99.90
21895;DHT22;11112;51.270;7.224;2023-03-30T11:53:08;13.70;99.90
21895;DHT22;11112;51.270;7.224;2023-03-30T11:56:01;13.70;99.90
21895;DHT22;11112;51.270;7.224;2023-03-30T11:58:34;13.70;99.90
21895;DHT22;11112;51.270;7.224;2023-03-30T12:01:29;13.70;99.90
21895;DHT22;11112;51.270;7.224;2023-03-30T12:04:05;13.80;99.90
21895;DHT22;11112;51.270;7.224;2023-03-30T12:06:37;13.80;99.90
21895;DHT22;11112;51.270;7.224;2023-03-30T12:09:24;13.80;99.90
21895;DHT22;11112;51.270;7.224;2023-03-30T12:12:07;13.90;99.90
21895;DHT22;11112;51.270;7.224;2023-03-30T12:14:48;13.90;99.90
21895;DHT22;11112;51.270;7.224;2023-03-30T12:17:37;13.90;99.90
21895;DHT22;11112;51.270;7.224;2023-03-30T12:20:20;13.90;99.90
21895;DHT22;11112;51.270;7.224;2023-03-30T12:22:56;13.90;99.90
21895;DHT22;11112;51.270;7.224;2023-03-30T12:25:34;13.90;99.90
21895;DHT22;11112;51.270;7.224;2023-03-30T12:28:13;13.90;99.90
21895;DHT22;11112;51.270;7.224;2023-03-30T12:30:43;13.90;99.90
21895;DHT22;11112;51.270;7.224;2023-03-30T12:33:17;13.90;99.90
21895;DHT22;11112;51.270;7.224;2023-03-30T12:35:56;13.90;99.90
21895;DHT22;11112;51.270;7.224;2023-03-30T12:38:27;13.90;99.90
21895;DHT22;11112;51.270;7.224;2023-03-30T12:41:07;13.80;99.90
21895;DHT22;11112;51.270;7.224;2023-03-30T12:44:03;13.90;99.90
21895;DHT22;11112;51.270;7.224;2023-03-30T12:46:50;13.80;99.90
21895;DHT22;11112;51.270;7.224;2023-03-30T12:49:33;13.90;99.90
21895;DHT22;11112;51.270;7.224;2023-03-30T12:52:12;13.90;99.90
21895;DHT22;11112;51.270;7.224;2023-03-30T12:55:03;13.90;99.90
21895;DHT22;11112;51.270;7.224;2023-03-30T12:57:50;13.90;99.90
21895;DHT22;11112;51.270;7.224;2023-03-30T13:01:07;14.00;99.90
21895;DHT22;11112;51.270;7.224;2023-03-30T13:03:45;14.00;99.90
21895;DHT22;11112;51.270;7.224;2023-03-30T13:06:21;14.00;99.90
21895;DHT22;11112;51.270;7.224;2023-03-30T13:09:02;13.90;99.90
21895;DHT22;11112;51.270;7.224;2023-03-30T13:14:45;13.90;99.90
21895;DHT22;11112;51.270;7.224;2023-03-30T13:17:14;13.90;99.90
21895;DHT22;11112;51.270;7.224;2023-03-30T13:20:12;13.90;99.90
21895;DHT22;11112;51.270;7.224;2023-03-30T13:22:52;13.80;99.90
21895;DHT22;11112;51.270;7.224;2023-03-30T13:25:29;13.80;99.90
21895;DHT22;11112;51.270;7.224;2023-03-30T13:28:33;13.80;99.90
21895;DHT22;11112;51.270;7.224;2023-03-30T13:31:10;13.80;99.90
21895;DHT22;11112;51.270;7.224;2023-03-30T13:33:48;13.80;99.90
21895;DHT22;11112;51.270;7.224;2023-03-30T13:36:22;13.90;99.90
21895;DHT22;11112;51.270;7.224;2023-03-30T13:39:02;13.90;99.90
21895;DHT22;11112;51.270;7.224;2023-03-30T13:41:40;13.90;99.90
21895;DHT22;11112;51.270;7.224;2023-03-30T13:44:41;13.90;99.90
21895;DHT22;11112;51.270;7.224;2023-03-30T13:47:30;14.00;99.90
21895;DHT22;11112;51.270;7.224;2023-03-30T13:50:06;14.00;99.90
21895;DHT22;11112;51.270;7.224;2023-03-30T13:52:42;14.00;99.90
21895;DHT22;11112;51.270;7.224;2023-03-30T13:55:16;14.00;99.90
21895;DHT22;11112;51.270;7.224;2023-03-30T13:57:46;14.00;99.90
21895;DHT22;11112;51.270;7.224;2023-03-30T14:00:25;14.00;99.90
21895;DHT22;11112;51.270;7.224;2023-03-30T14:03:34;14.00;99.90
21895;DHT22;11112;51.270;7.224;2023-03-30T14:06:03;14.00;99.90
21895;DHT22;11112;51.270;7.224;2023-03-30T14:08:35;14.00;99.90
21895;DHT22;11112;51.270;7.224;2023-03-30T14:11:10;14.00;99.90
21895;DHT22;11112;51.270;7.224;2023-03-30T14:13:41;14.00;99.90
21895;DHT22;11112;51.270;7.224;2023-03-30T14:16:10;14.00;99.90
21895;DHT22;11112;51.270;7.224;2023-03-30T14:18:41;14.00;99.90
21895;DHT22;11112;51.270;7.224;2023-03-30T14:21:12;14.00;99.90
21895;DHT22;11112;51.270;7.224;2023-03-30T14:23:43;14.00;99.90
21895;DHT22;11112;51.270;7.224;2023-03-30T14:26:14;14.00;99.90
21895;DHT22;11112;51.270;7.224;2023-03-30T14:28:43;14.00;99.90
21895;DHT22;11112;51.270;7.224;2023-03-30T14:31:13;14.00;99.90
21895;DHT22;11112;51.270;7.224;2023-03-30T14:33:43;14.00;99.90
21895;DHT22;11112;51.270;7.224;2023-03-30T14:36:13;14.10;99.90
21895;DHT22;11112;51.270;7.224;2023-03-30T14:38:43;14.10;99.90
21895;DHT22;11112;51.270;7.224;2023-03-30T14:41:14;14.10;99.90
21895;DHT22;11112;51.270;7.224;2023-03-30T14:43:50;14.10;99.90
21895;DHT22;11112;51.270;7.224;2023-03-30T14:46:19;14.10;99.90
21895;DHT22;11112;51.270;7.224;2023-03-30T14:48:48;14.10;99.90
21895;DHT22;11112;51.270;7.224;2023-03-30T14:51:22;14.10;99.90
21895;DHT22;11112;51.270;7.224;2023-03-30T14:53:51;14.10;99.90
21895;DHT22;11112;51.270;7.224;2023-03-30T14:56:20;14.10;99.90
21895;DHT22;11112;51.270;7.224;2023-03-30T14:58:50;14.10;99.90
21895;DHT22;11112;51.270;7.224;2023-03-30T15:01:21;14.00;99.90
21895;DHT22;11112;51.270;7.224;2023-03-30T15:03:57;14.00;99.90
21895;DHT22;11112;51.270;7.224;2023-03-30T15:06:26;14.00;99.90
21895;DHT22;11112;51.270;7.224;2023-03-30T15:09:01;14.00;99.90
21895;DHT22;11112;51.270;7.224;2023-03-30T15:11:32;14.00;99.90
21895;DHT22;11112;51.270;7.224;2023-03-30T15:14:02;14.00;99.90
21895;DHT22;11112;51.270;7.224;2023-03-30T15:16:34;14.00;99.90
21895;DHT22;11112;51.270;7.224;2023-03-30T15:19:05;14.00;99.90
21895;DHT22;11112;51.270;7.224;2023-03-30T15:21:37;14.00;99.90
21895;DHT22;11112;51.270;7.224;2023-03-30T15:24:11;14.00;99.90
21895;DHT22;11112;51.270;7.224;2023-03-30T15:26:44;14.00;99.90
21895;DHT22;11112;51.270;7.224;2023-03-30T15:29:14;14.00;99.90
21895;DHT22;11112;51.270;7.224;2023-03-30T15:31:42;14.00;99.90
21895;DHT22;11112;51.270;7.224;2023-03-30T15:34:15;14.00;99.90
21895;DHT22;11112;51.270;7.224;2023-03-30T15:36:51;14.00;99.90
21895;DHT22;11112;51.270;7.224;2023-03-30T15:39:20;14.00;99.90
21895;DHT22;11112;51.270;7.224;2023-03-30T15:41:58;14.00;99.90
21895;DHT22;11112;51.270;7.224;2023-03-30T15:44:26;14.00;99.90
21895;DHT22;11112;51.270;7.224;2023-03-30T15:46:55;14.00;99.90
21895;DHT22;11112;51.270;7.224;2023-03-30T15:49:31;14.00;99.90
21895;DHT22;11112;51.270;7.224;2023-03-30T15:52:10;14.00;99.90
21895;DHT22;11112;51.270;7.224;2023-03-30T15:54:45;14.00;99.90
21895;DHT22;11112;51.270;7.224;2023-03-30T15:57:21;14.00;99.90
21895;DHT22;11112;51.270;7.224;2023-03-30T15:59:53;14.00;99.90
21895;DHT22;11112;51.270;7.224;2023-03-30T16:02:23;14.00;99.90
21895;DHT22;11112;51.270;7.224;2023-03-30T16:05:05;13.90;99.90
21895;DHT22;11112;51.270;7.224;2023-03-30T16:07:33;13.90;99.90
21895;DHT22;11112;51.270;7.224;2023-03-30T16:10:03;13.90;99.90
21895;DHT22;11112;51.270;7.224;2023-03-30T16:12:31;13.90;99.90